sensor_id;sensor_type;location;lat;lon;timestamp;P1;durP1;ratioP1;P2;durP2;ratioP2
2680;SDS011;1350;42.134;24.708;2023-11-21T00:01:06;6.40;;;3.53;;
2680;SDS011;1350;42.134;24.708;2023-11-21T00:03:33;6.35;;;3.50;;
2680;SDS011;1350;42.134;24.708;2023-11-21T00:06:02;8.23;;;4.28;;
2680;SDS011;1350;42.134;24.708;2023-11-21T00:08:29;5.95;;;3.13;;
2680;SDS011;1350;42.134;24.708;2023-11-21T00:10:56;6.78;;;3.50;;
2680;SDS011;1350;42.134;24.708;2023-11-21T00:13:23;7.28;;;3.20;;
2680;SDS011;1350;42.134;24.708;2023-11-21T00:15:50;6.32;;;3.05;;
2680;SDS011;1350;42.134;24.708;2023-11-21T00:18:17;7.07;;;2.83;;
2680;SDS011;1350;42.134;24.708;2023-11-21T00:20:44;7.40;;;3.15;;
2680;SDS011;1350;42.134;24.708;2023-11-21T00:23:12;6.75;;;3.00;;
2680;SDS011;1350;42.134;24.708;2023-11-21T00:25:39;6.65;;;2.90;;
2680;SDS011;1350;42.134;24.708;2023-11-21T00:28:06;6.38;;;2.70;;
2680;SDS011;1350;42.134;24.708;2023-11-21T00:30:33;6.93;;;3.30;;
2680;SDS011;1350;42.134;24.708;2023-11-21T00:33:00;7.18;;;2.92;;
2680;SDS011;1350;42.134;24.708;2023-11-21T00:35:27;5.90;;;3.03;;
2680;SDS011;1350;42.134;24.708;2023-11-21T00:37:53;6.20;;;2.80;;
2680;SDS011;1350;42.134;24.708;2023-11-21T00:40:22;5.32;;;2.55;;
2680;SDS011;1350;42.134;24.708;2023-11-21T00:42:49;7.40;;;2.67;;
2680;SDS011;1350;42.134;24.708;2023-11-21T00:45:16;5.50;;;3.00;;
2680;SDS011;1350;42.134;24.708;2023-11-21T00:47:43;5.78;;;2.58;;
2680;SDS011;1350;42.134;24.708;2023-11-21T00:50:10;5.68;;;2.58;;
2680;SDS011;1350;42.134;24.708;2023-11-21T00:52:37;6.15;;;2.90;;
2680;SDS011;1350;42.134;24.708;2023-11-21T00:55:04;5.55;;;2.47;;
2680;SDS011;1350;42.134;24.708;2023-11-21T00:57:34;6.93;;;2.55;;
2680;SDS011;1350;42.134;24.708;2023-11-21T01:00:00;6.22;;;2.75;;
2680;SDS011;1350;42.134;24.708;2023-11-21T01:02:31;7.60;;;2.88;;
2680;SDS011;1350;42.134;24.708;2023-11-21T01:05:00;7.07;;;2.80;;
2680;SDS011;1350;42.134;24.708;2023-11-21T01:07:27;7.10;;;2.92;;
2680;SDS011;1350;42.134;24.708;2023-11-21T01:09:54;8.02;;;3.08;;
2680;SDS011;1350;42.134;24.708;2023-11-21T01:12:21;6.65;;;3.15;;
2680;SDS011;1350;42.134;24.708;2023-11-21T01:14:51;5.93;;;2.40;;
2680;SDS011;1350;42.134;24.708;2023-11-21T01:17:18;7.05;;;3.30;;
2680;SDS011;1350;42.134;24.708;2023-11-21T01:19:47;9.90;;;3.60;;
2680;SDS011;1350;42.134;24.708;2023-11-21T01:22:14;7.45;;;3.20;;
2680;SDS011;1350;42.134;24.708;2023-11-21T01:24:41;9.20;;;3.83;;
2680;SDS011;1350;42.134;24.708;2023-11-21T01:27:08;6.28;;;3.67;;
2680;SDS011;1350;42.134;24.708;2023-11-21T01:29:35;7.85;;;3.80;;
2680;SDS011;1350;42.134;24.708;2023-11-21T01:32:03;7.53;;;4.20;;
2680;SDS011;1350;42.134;24.708;2023-11-21T01:34:33;11.48;;;6.32;;
2680;SDS011;1350;42.134;24.708;2023-11-21T01:36:59;8.60;;;4.40;;
2680;SDS011;1350;42.134;24.708;2023-11-21T01:39:27;12.73;;;5.32;;
2680;SDS011;1350;42.134;24.708;2023-11-21T01:41:54;9.95;;;5.03;;
2680;SDS011;1350;42.134;24.708;2023-11-21T01:44:23;7.97;;;4.60;;
2680;SDS011;1350;42.134;24.708;2023-11-21T01:46:50;15.00;;;6.40;;
2680;SDS011;1350;42.134;24.708;2023-11-21T01:49:20;17.48;;;5.72;;
2680;SDS011;1350;42.134;24.708;2023-11-21T01:51:47;8.13;;;5.13;;
2680;SDS011;1350;42.134;24.708;2023-11-21T01:54:16;11.85;;;5.95;;
2680;SDS011;1350;42.134;24.708;2023-11-21T01:56:43;17.48;;;5.82;;
2680;SDS011;1350;42.134;24.708;2023-11-21T01:59:12;11.20;;;5.78;;
2680;SDS011;1350;42.134;24.708;2023-11-21T02:01:47;10.13;;;5.35;;
2680;SDS011;1350;42.134;24.708;2023-11-21T02:04:15;11.25;;;5.32;;
2680;SDS011;1350;42.134;24.708;2023-11-21T02:06:43;12.73;;;5.95;;
2680;SDS011;1350;42.134;24.708;2023-11-21T02:09:10;8.27;;;5.15;;
2680;SDS011;1350;42.134;24.708;2023-11-21T02:11:40;11.13;;;6.43;;
2680;SDS011;1350;42.134;24.708;2023-11-21T02:14:07;10.18;;;5.00;;
2680;SDS011;1350;42.134;24.708;2023-11-21T02:16:34;9.50;;;5.60;;
2680;SDS011;1350;42.134;24.708;2023-11-21T02:19:02;12.45;;;5.15;;
2680;SDS011;1350;42.134;24.708;2023-11-21T02:21:30;8.70;;;5.28;;
2680;SDS011;1350;42.134;24.708;2023-11-21T02:23:59;11.43;;;5.60;;
2680;SDS011;1350;42.134;24.708;2023-11-21T02:26:25;9.00;;;5.63;;
2680;SDS011;1350;42.134;24.708;2023-11-21T02:28:52;9.50;;;5.60;;
2680;SDS011;1350;42.134;24.708;2023-11-21T02:31:19;10.40;;;5.32;;
2680;SDS011;1350;42.134;24.708;2023-11-21T02:33:47;9.95;;;5.82;;
2680;SDS011;1350;42.134;24.708;2023-11-21T02:36:14;14.50;;;4.95;;
2680;SDS011;1350;42.134;24.708;2023-11-21T02:38:41;12.35;;;4.70;;
2680;SDS011;1350;42.134;24.708;2023-11-21T02:41:09;10.73;;;5.00;;
2680;SDS011;1350;42.134;24.708;2023-11-21T02:43:36;11.82;;;4.78;;
2680;SDS011;1350;42.134;24.708;2023-11-21T02:46:03;10.30;;;5.70;;
2680;SDS011;1350;42.134;24.708;2023-11-21T02:48:31;9.05;;;4.57;;
2680;SDS011;1350;42.134;24.708;2023-11-21T02:50:57;10.50;;;4.97;;
2680;SDS011;1350;42.134;24.708;2023-11-21T02:53:24;12.40;;;5.95;;
2680;SDS011;1350;42.134;24.708;2023-11-21T02:55:51;12.07;;;5.40;;
2680;SDS011;1350;42.134;24.708;2023-11-21T02:58:19;10.80;;;6.05;;
2680;SDS011;1350;42.134;24.708;2023-11-21T03:00:46;13.02;;;5.80;;
2680;SDS011;1350;42.134;24.708;2023-11-21T03:03:13;36.97;;;8.60;;
2680;SDS011;1350;42.134;24.708;2023-11-21T03:05:40;12.40;;;7.10;;
2680;SDS011;1350;42.134;24.708;2023-11-21T03:08:07;15.50;;;7.15;;
2680;SDS011;1350;42.134;24.708;2023-11-21T03:10:34;21.42;;;8.93;;
2680;SDS011;1350;42.134;24.708;2023-11-21T03:13:01;18.05;;;7.45;;
2680;SDS011;1350;42.134;24.708;2023-11-21T03:15:29;17.25;;;8.13;;
2680;SDS011;1350;42.134;24.708;2023-11-21T03:17:57;22.42;;;8.85;;
2680;SDS011;1350;42.134;24.708;2023-11-21T03:20:24;26.55;;;9.50;;
2680;SDS011;1350;42.134;24.708;2023-11-21T03:22:52;17.40;;;9.75;;
2680;SDS011;1350;42.134;24.708;2023-11-21T03:25:19;18.30;;;7.70;;
2680;SDS011;1350;42.134;24.708;2023-11-21T03:27:49;16.73;;;6.90;;
2680;SDS011;1350;42.134;24.708;2023-11-21T03:30:16;9.88;;;6.25;;
2680;SDS011;1350;42.134;24.708;2023-11-21T03:32:44;18.80;;;6.97;;
2680;SDS011;1350;42.134;24.708;2023-11-21T03:35:11;19.95;;;7.82;;
2680;SDS011;1350;42.134;24.708;2023-11-21T03:37:38;16.98;;;9.80;;
2680;SDS011;1350;42.134;24.708;2023-11-21T03:40:07;21.83;;;10.60;;
2680;SDS011;1350;42.134;24.708;2023-11-21T03:42:34;19.42;;;9.57;;
2680;SDS011;1350;42.134;24.708;2023-11-21T03:45:01;21.98;;;9.55;;
2680;SDS011;1350;42.134;24.708;2023-11-21T03:47:29;16.52;;;10.95;;
2680;SDS011;1350;42.134;24.708;2023-11-21T03:49:57;17.40;;;10.27;;
2680;SDS011;1350;42.134;24.708;2023-11-21T03:52:24;19.65;;;8.93;;
2680;SDS011;1350;42.134;24.708;2023-11-21T03:54:52;17.17;;;10.43;;
2680;SDS011;1350;42.134;24.708;2023-11-21T03:57:20;17.60;;;11.43;;
2680;SDS011;1350;42.134;24.708;2023-11-21T03:59:47;17.65;;;9.68;;
2680;SDS011;1350;42.134;24.708;2023-11-21T04:02:13;21.17;;;10.20;;
2680;SDS011;1350;42.134;24.708;2023-11-21T04:04:40;35.05;;;10.88;;
2680;SDS011;1350;42.134;24.708;2023-11-21T04:07:08;49.08;;;14.20;;
2680;SDS011;1350;42.134;24.708;2023-11-21T04:09:36;47.70;;;11.45;;
2680;SDS011;1350;42.134;24.708;2023-11-21T04:12:03;29.48;;;10.75;;
2680;SDS011;1350;42.134;24.708;2023-11-21T04:14:30;20.90;;;9.98;;
2680;SDS011;1350;42.134;24.708;2023-11-21T04:16:57;38.75;;;11.48;;
2680;SDS011;1350;42.134;24.708;2023-11-21T04:19:24;28.15;;;11.70;;
2680;SDS011;1350;42.134;24.708;2023-11-21T04:21:51;36.50;;;9.85;;
2680;SDS011;1350;42.134;24.708;2023-11-21T04:24:19;27.73;;;11.23;;
2680;SDS011;1350;42.134;24.708;2023-11-21T04:26:46;23.27;;;11.05;;
2680;SDS011;1350;42.134;24.708;2023-11-21T04:29:13;34.38;;;12.40;;
2680;SDS011;1350;42.134;24.708;2023-11-21T04:31:39;23.73;;;11.68;;
2680;SDS011;1350;42.134;24.708;2023-11-21T04:34:06;26.52;;;12.55;;
2680;SDS011;1350;42.134;24.708;2023-11-21T04:36:33;17.10;;;9.90;;
2680;SDS011;1350;42.134;24.708;2023-11-21T04:39:00;17.02;;;10.82;;
2680;SDS011;1350;42.134;24.708;2023-11-21T04:41:28;21.98;;;9.43;;
2680;SDS011;1350;42.134;24.708;2023-11-21T04:43:56;24.95;;;10.60;;
2680;SDS011;1350;42.134;24.708;2023-11-21T04:46:23;21.08;;;10.55;;
2680;SDS011;1350;42.134;24.708;2023-11-21T04:48:50;19.25;;;9.80;;
2680;SDS011;1350;42.134;24.708;2023-11-21T04:51:17;21.52;;;10.52;;
2680;SDS011;1350;42.134;24.708;2023-11-21T04:53:44;39.70;;;12.25;;
2680;SDS011;1350;42.134;24.708;2023-11-21T04:56:12;28.20;;;11.65;;
2680;SDS011;1350;42.134;24.708;2023-11-21T04:58:42;27.80;;;13.18;;
2680;SDS011;1350;42.134;24.708;2023-11-21T05:01:09;29.58;;;12.25;;
2680;SDS011;1350;42.134;24.708;2023-11-21T05:03:37;28.13;;;11.50;;
2680;SDS011;1350;42.134;24.708;2023-11-21T05:06:04;46.00;;;13.57;;
2680;SDS011;1350;42.134;24.708;2023-11-21T05:08:31;34.53;;;12.07;;
2680;SDS011;1350;42.134;24.708;2023-11-21T05:10:58;18.42;;;9.35;;
2680;SDS011;1350;42.134;24.708;2023-11-21T05:13:25;20.65;;;11.40;;
2680;SDS011;1350;42.134;24.708;2023-11-21T05:15:54;20.92;;;11.85;;
2680;SDS011;1350;42.134;24.708;2023-11-21T05:18:22;35.75;;;11.85;;
2680;SDS011;1350;42.134;24.708;2023-11-21T05:20:48;28.20;;;11.25;;
2680;SDS011;1350;42.134;24.708;2023-11-21T05:23:15;21.80;;;9.93;;
2680;SDS011;1350;42.134;24.708;2023-11-21T05:25:42;21.05;;;10.95;;
2680;SDS011;1350;42.134;24.708;2023-11-21T05:28:09;18.23;;;10.48;;
2680;SDS011;1350;42.134;24.708;2023-11-21T05:30:36;18.83;;;9.00;;
2680;SDS011;1350;42.134;24.708;2023-11-21T05:33:05;24.45;;;10.60;;
2680;SDS011;1350;42.134;24.708;2023-11-21T05:35:32;49.65;;;11.32;;
2680;SDS011;1350;42.134;24.708;2023-11-21T05:37:59;20.38;;;10.68;;
2680;SDS011;1350;42.134;24.708;2023-11-21T05:40:26;19.73;;;10.38;;
2680;SDS011;1350;42.134;24.708;2023-11-21T05:42:54;29.92;;;11.85;;
2680;SDS011;1350;42.134;24.708;2023-11-21T05:45:22;22.55;;;13.38;;
2680;SDS011;1350;42.134;24.708;2023-11-21T05:47:50;28.40;;;11.07;;
2680;SDS011;1350;42.134;24.708;2023-11-21T05:50:18;16.65;;;9.90;;
2680;SDS011;1350;42.134;24.708;2023-11-21T05:52:45;14.40;;;8.90;;
2680;SDS011;1350;42.134;24.708;2023-11-21T05:55:13;18.50;;;9.90;;
2680;SDS011;1350;42.134;24.708;2023-11-21T05:57:41;21.90;;;10.88;;
2680;SDS011;1350;42.134;24.708;2023-11-21T06:00:10;36.90;;;11.68;;
2680;SDS011;1350;42.134;24.708;2023-11-21T06:02:43;27.77;;;10.70;;
2680;SDS011;1350;42.134;24.708;2023-11-21T06:05:11;24.42;;;10.52;;
2680;SDS011;1350;42.134;24.708;2023-11-21T06:07:39;23.00;;;9.85;;
2680;SDS011;1350;42.134;24.708;2023-11-21T06:10:06;28.58;;;10.20;;
2680;SDS011;1350;42.134;24.708;2023-11-21T06:12:36;20.85;;;9.88;;
2680;SDS011;1350;42.134;24.708;2023-11-21T06:15:03;17.63;;;11.15;;
2680;SDS011;1350;42.134;24.708;2023-11-21T06:17:33;23.33;;;9.77;;
2680;SDS011;1350;42.134;24.708;2023-11-21T06:20:01;18.17;;;10.10;;
2680;SDS011;1350;42.134;24.708;2023-11-21T06:22:34;24.65;;;8.82;;
2680;SDS011;1350;42.134;24.708;2023-11-21T06:25:02;23.40;;;8.65;;
2680;SDS011;1350;42.134;24.708;2023-11-21T06:27:31;18.73;;;9.18;;
2680;SDS011;1350;42.134;24.708;2023-11-21T06:29:57;16.15;;;9.45;;
2680;SDS011;1350;42.134;24.708;2023-11-21T06:32:24;16.35;;;8.27;;
2680;SDS011;1350;42.134;24.708;2023-11-21T06:34:51;14.70;;;9.02;;
2680;SDS011;1350;42.134;24.708;2023-11-21T06:37:19;18.73;;;9.10;;
2680;SDS011;1350;42.134;24.708;2023-11-21T06:39:48;17.17;;;9.40;;
2680;SDS011;1350;42.134;24.708;2023-11-21T06:42:16;16.73;;;8.00;;
2680;SDS011;1350;42.134;24.708;2023-11-21T06:44:44;17.03;;;9.40;;
2680;SDS011;1350;42.134;24.708;2023-11-21T06:47:11;20.07;;;8.73;;
2680;SDS011;1350;42.134;24.708;2023-11-21T06:49:38;34.50;;;10.83;;
2680;SDS011;1350;42.134;24.708;2023-11-21T06:52:05;12.18;;;7.60;;
2680;SDS011;1350;42.134;24.708;2023-11-21T06:54:31;18.75;;;8.30;;
2680;SDS011;1350;42.134;24.708;2023-11-21T06:56:59;25.00;;;8.30;;
2680;SDS011;1350;42.134;24.708;2023-11-21T06:59:27;16.13;;;8.07;;
2680;SDS011;1350;42.134;24.708;2023-11-21T07:01:54;46.38;;;11.05;;
2680;SDS011;1350;42.134;24.708;2023-11-21T07:04:21;12.45;;;9.00;;
2680;SDS011;1350;42.134;24.708;2023-11-21T07:06:49;12.77;;;8.00;;
2680;SDS011;1350;42.134;24.708;2023-11-21T07:09:16;16.92;;;7.90;;
2680;SDS011;1350;42.134;24.708;2023-11-21T07:11:44;12.52;;;7.53;;
2680;SDS011;1350;42.134;24.708;2023-11-21T07:14:13;15.82;;;8.68;;
2680;SDS011;1350;42.134;24.708;2023-11-21T07:16:41;13.90;;;7.90;;
2680;SDS011;1350;42.134;24.708;2023-11-21T07:19:08;24.10;;;10.30;;
2680;SDS011;1350;42.134;24.708;2023-11-21T07:21:35;27.80;;;9.73;;
2680;SDS011;1350;42.134;24.708;2023-11-21T07:24:03;18.10;;;9.57;;
2680;SDS011;1350;42.134;24.708;2023-11-21T07:26:31;17.02;;;9.50;;
2680;SDS011;1350;42.134;24.708;2023-11-21T07:28:59;21.23;;;9.27;;
2680;SDS011;1350;42.134;24.708;2023-11-21T07:31:26;16.80;;;9.68;;
2680;SDS011;1350;42.134;24.708;2023-11-21T07:33:55;28.13;;;9.20;;
2680;SDS011;1350;42.134;24.708;2023-11-21T07:36:23;28.88;;;11.25;;
2680;SDS011;1350;42.134;24.708;2023-11-21T07:38:50;16.20;;;8.38;;
2680;SDS011;1350;42.134;24.708;2023-11-21T07:41:17;21.00;;;10.20;;
2680;SDS011;1350;42.134;24.708;2023-11-21T07:43:46;16.17;;;8.10;;
2680;SDS011;1350;42.134;24.708;2023-11-21T07:46:13;18.97;;;10.03;;
2680;SDS011;1350;42.134;24.708;2023-11-21T07:48:40;19.70;;;11.83;;
2680;SDS011;1350;42.134;24.708;2023-11-21T07:51:09;27.30;;;9.80;;
2680;SDS011;1350;42.134;24.708;2023-11-21T07:53:38;19.03;;;9.23;;
2680;SDS011;1350;42.134;24.708;2023-11-21T07:56:05;19.53;;;8.97;;
2680;SDS011;1350;42.134;24.708;2023-11-21T07:58:34;25.67;;;10.83;;
2680;SDS011;1350;42.134;24.708;2023-11-21T08:01:00;28.47;;;11.57;;
2680;SDS011;1350;42.134;24.708;2023-11-21T08:03:28;19.80;;;10.20;;
2680;SDS011;1350;42.134;24.708;2023-11-21T08:05:55;18.33;;;9.07;;
2680;SDS011;1350;42.134;24.708;2023-11-21T08:08:24;12.97;;;8.00;;
2680;SDS011;1350;42.134;24.708;2023-11-21T08:10:51;12.40;;;7.33;;
2680;SDS011;1350;42.134;24.708;2023-11-21T08:13:21;55.40;;;14.40;;
2680;SDS011;1350;42.134;24.708;2023-11-21T08:15:47;13.63;;;7.93;;
2680;SDS011;1350;42.134;24.708;2023-11-21T08:18:14;18.03;;;10.07;;
2680;SDS011;1350;42.134;24.708;2023-11-21T08:20:42;14.70;;;8.30;;
2680;SDS011;1350;42.134;24.708;2023-11-21T08:23:13;11.20;;;7.50;;
2680;SDS011;1350;42.134;24.708;2023-11-21T08:25:43;22.73;;;8.27;;
2680;SDS011;1350;42.134;24.708;2023-11-21T08:28:10;20.27;;;7.90;;
2680;SDS011;1350;42.134;24.708;2023-11-21T08:30:37;22.07;;;7.90;;
2680;SDS011;1350;42.134;24.708;2023-11-21T08:33:05;18.10;;;9.53;;
2680;SDS011;1350;42.134;24.708;2023-11-21T08:35:33;11.17;;;6.93;;
2680;SDS011;1350;42.134;24.708;2023-11-21T08:38:01;12.53;;;6.30;;
2680;SDS011;1350;42.134;24.708;2023-11-21T08:40:28;15.57;;;7.00;;
2680;SDS011;1350;42.134;24.708;2023-11-21T08:42:57;20.20;;;7.90;;
2680;SDS011;1350;42.134;24.708;2023-11-21T08:45:24;20.07;;;9.50;;
2680;SDS011;1350;42.134;24.708;2023-11-21T08:47:51;31.53;;;9.90;;
2680;SDS011;1350;42.134;24.708;2023-11-21T08:50:18;17.30;;;6.17;;
2680;SDS011;1350;42.134;24.708;2023-11-21T08:52:46;11.77;;;6.10;;
2680;SDS011;1350;42.134;24.708;2023-11-21T08:55:14;14.13;;;6.73;;
2680;SDS011;1350;42.134;24.708;2023-11-21T08:57:43;14.13;;;6.53;;
2680;SDS011;1350;42.134;24.708;2023-11-21T09:00:13;17.77;;;6.67;;
2680;SDS011;1350;42.134;24.708;2023-11-21T09:02:42;12.73;;;5.87;;
2680;SDS011;1350;42.134;24.708;2023-11-21T09:05:09;23.43;;;6.80;;
2680;SDS011;1350;42.134;24.708;2023-11-21T09:07:36;13.43;;;6.20;;
2680;SDS011;1350;42.134;24.708;2023-11-21T09:10:04;13.43;;;5.43;;
2680;SDS011;1350;42.134;24.708;2023-11-21T09:12:34;9.20;;;5.57;;
2680;SDS011;1350;42.134;24.708;2023-11-21T09:15:02;13.33;;;5.57;;
2680;SDS011;1350;42.134;24.708;2023-11-21T09:17:31;13.87;;;5.97;;
2680;SDS011;1350;42.134;24.708;2023-11-21T09:19:59;12.33;;;6.27;;
2680;SDS011;1350;42.134;24.708;2023-11-21T09:22:26;12.27;;;5.17;;
2680;SDS011;1350;42.134;24.708;2023-11-21T09:24:54;11.87;;;6.27;;
2680;SDS011;1350;42.134;24.708;2023-11-21T09:27:22;16.03;;;7.17;;
2680;SDS011;1350;42.134;24.708;2023-11-21T09:29:50;19.83;;;7.10;;
2680;SDS011;1350;42.134;24.708;2023-11-21T09:32:18;17.10;;;7.10;;
2680;SDS011;1350;42.134;24.708;2023-11-21T09:34:47;11.97;;;6.80;;
2680;SDS011;1350;42.134;24.708;2023-11-21T09:37:15;15.73;;;6.60;;
2680;SDS011;1350;42.134;24.708;2023-11-21T09:39:42;14.73;;;7.37;;
2680;SDS011;1350;42.134;24.708;2023-11-21T09:42:10;23.13;;;7.57;;
2680;SDS011;1350;42.134;24.708;2023-11-21T09:44:44;16.80;;;9.03;;
2680;SDS011;1350;42.134;24.708;2023-11-21T09:47:15;19.53;;;8.97;;
2680;SDS011;1350;42.134;24.708;2023-11-21T09:49:42;10.27;;;5.73;;
2680;SDS011;1350;42.134;24.708;2023-11-21T09:52:17;10.00;;;6.03;;
2680;SDS011;1350;42.134;24.708;2023-11-21T09:54:50;13.53;;;5.90;;
2680;SDS011;1350;42.134;24.708;2023-11-21T09:57:19;9.93;;;4.70;;
2680;SDS011;1350;42.134;24.708;2023-11-21T09:59:48;12.13;;;5.13;;
2680;SDS011;1350;42.134;24.708;2023-11-21T10:02:20;9.67;;;5.80;;
2680;SDS011;1350;42.134;24.708;2023-11-21T10:04:52;11.13;;;6.53;;
2680;SDS011;1350;42.134;24.708;2023-11-21T10:07:20;12.17;;;6.20;;
2680;SDS011;1350;42.134;24.708;2023-11-21T10:09:47;16.53;;;6.30;;
2680;SDS011;1350;42.134;24.708;2023-11-21T10:12:14;9.47;;;5.77;;
2680;SDS011;1350;42.134;24.708;2023-11-21T10:14:42;10.30;;;6.00;;
2680;SDS011;1350;42.134;24.708;2023-11-21T10:17:12;10.60;;;7.00;;
2680;SDS011;1350;42.134;24.708;2023-11-21T10:19:41;15.57;;;6.30;;
2680;SDS011;1350;42.134;24.708;2023-11-21T10:22:11;11.43;;;6.43;;
2680;SDS011;1350;42.134;24.708;2023-11-21T10:24:40;15.13;;;7.30;;
2680;SDS011;1350;42.134;24.708;2023-11-21T10:27:08;12.33;;;7.50;;
2680;SDS011;1350;42.134;24.708;2023-11-21T10:29:35;14.33;;;7.10;;
2680;SDS011;1350;42.134;24.708;2023-11-21T10:32:02;14.63;;;7.63;;
2680;SDS011;1350;42.134;24.708;2023-11-21T10:34:30;16.00;;;9.17;;
2680;SDS011;1350;42.134;24.708;2023-11-21T10:36:57;16.03;;;8.60;;
2680;SDS011;1350;42.134;24.708;2023-11-21T10:39:26;15.10;;;8.40;;
2680;SDS011;1350;42.134;24.708;2023-11-21T10:41:56;16.30;;;9.80;;
2680;SDS011;1350;42.134;24.708;2023-11-21T10:44:22;10.83;;;7.57;;
2680;SDS011;1350;42.134;24.708;2023-11-21T10:46:50;13.40;;;8.10;;
2680;SDS011;1350;42.134;24.708;2023-11-21T10:49:21;14.07;;;8.00;;
2680;SDS011;1350;42.134;24.708;2023-11-21T10:51:49;14.70;;;10.10;;
2680;SDS011;1350;42.134;24.708;2023-11-21T10:54:18;16.73;;;11.77;;
2680;SDS011;1350;42.134;24.708;2023-11-21T10:56:48;22.20;;;8.83;;
2680;SDS011;1350;42.134;24.708;2023-11-21T10:59:17;16.77;;;8.53;;
2680;SDS011;1350;42.134;24.708;2023-11-21T11:01:46;17.80;;;8.70;;
2680;SDS011;1350;42.134;24.708;2023-11-21T11:04:16;16.83;;;9.30;;
2680;SDS011;1350;42.134;24.708;2023-11-21T11:06:47;15.60;;;8.80;;
2680;SDS011;1350;42.134;24.708;2023-11-21T11:09:17;15.10;;;7.53;;
2680;SDS011;1350;42.134;24.708;2023-11-21T11:11:44;21.43;;;8.97;;
2680;SDS011;1350;42.134;24.708;2023-11-21T11:14:14;14.50;;;7.50;;
2680;SDS011;1350;42.134;24.708;2023-11-21T11:16:42;13.00;;;7.53;;
2680;SDS011;1350;42.134;24.708;2023-11-21T11:19:10;11.77;;;7.33;;
2680;SDS011;1350;42.134;24.708;2023-11-21T11:21:42;19.67;;;9.97;;
2680;SDS011;1350;42.134;24.708;2023-11-21T11:27:24;15.10;;;8.57;;
2680;SDS011;1350;42.134;24.708;2023-11-21T11:30:07;18.70;;;10.33;;
2680;SDS011;1350;42.134;24.708;2023-11-21T11:32:45;16.73;;;9.53;;
2680;SDS011;1350;42.134;24.708;2023-11-21T11:35:24;16.90;;;10.13;;
2680;SDS011;1350;42.134;24.708;2023-11-21T11:38:00;19.40;;;10.83;;
2680;SDS011;1350;42.134;24.708;2023-11-21T11:40:38;17.27;;;10.03;;
2680;SDS011;1350;42.134;24.708;2023-11-21T11:43:06;18.20;;;10.33;;
2680;SDS011;1350;42.134;24.708;2023-11-21T11:45:34;16.93;;;10.10;;
2680;SDS011;1350;42.134;24.708;2023-11-21T11:48:06;18.63;;;8.80;;
2680;SDS011;1350;42.134;24.708;2023-11-21T11:50:33;17.20;;;9.47;;
2680;SDS011;1350;42.134;24.708;2023-11-21T11:53:11;21.52;;;10.38;;
2680;SDS011;1350;42.134;24.708;2023-11-21T11:55:39;22.45;;;11.02;;
2680;SDS011;1350;42.134;24.708;2023-11-21T11:58:06;18.77;;;11.07;;
2680;SDS011;1350;42.134;24.708;2023-11-21T12:00:35;15.33;;;9.37;;
2680;SDS011;1350;42.134;24.708;2023-11-21T12:03:05;18.08;;;10.50;;
2680;SDS011;1350;42.134;24.708;2023-11-21T12:05:34;17.05;;;10.57;;
2680;SDS011;1350;42.134;24.708;2023-11-21T12:08:04;17.85;;;9.60;;
2680;SDS011;1350;42.134;24.708;2023-11-21T12:10:32;14.77;;;9.35;;
2680;SDS011;1350;42.134;24.708;2023-11-21T12:13:00;16.02;;;9.73;;
2680;SDS011;1350;42.134;24.708;2023-11-21T12:15:30;18.50;;;11.53;;
2680;SDS011;1350;42.134;24.708;2023-11-21T12:17:58;21.83;;;11.80;;
2680;SDS011;1350;42.134;24.708;2023-11-21T12:20:26;21.10;;;11.40;;
2680;SDS011;1350;42.134;24.708;2023-11-21T12:22:54;20.65;;;11.13;;
2680;SDS011;1350;42.134;24.708;2023-11-21T12:25:24;20.73;;;7.95;;
2680;SDS011;1350;42.134;24.708;2023-11-21T12:27:54;16.55;;;9.63;;
2680;SDS011;1350;42.134;24.708;2023-11-21T12:30:22;30.43;;;12.57;;
2680;SDS011;1350;42.134;24.708;2023-11-21T12:32:53;30.23;;;12.00;;
2680;SDS011;1350;42.134;24.708;2023-11-21T12:35:23;22.50;;;9.60;;
2680;SDS011;1350;42.134;24.708;2023-11-21T12:37:52;16.13;;;8.57;;
2680;SDS011;1350;42.134;24.708;2023-11-21T12:40:19;15.65;;;7.85;;
2680;SDS011;1350;42.134;24.708;2023-11-21T12:42:48;11.15;;;6.97;;
2680;SDS011;1350;42.134;24.708;2023-11-21T12:45:19;14.10;;;8.40;;
2680;SDS011;1350;42.134;24.708;2023-11-21T12:47:47;15.43;;;9.60;;
2680;SDS011;1350;42.134;24.708;2023-11-21T12:50:15;13.23;;;9.32;;
2680;SDS011;1350;42.134;24.708;2023-11-21T12:52:50;22.90;;;12.93;;
2680;SDS011;1350;42.134;24.708;2023-11-21T12:55:19;14.82;;;10.90;;
2680;SDS011;1350;42.134;24.708;2023-11-21T12:57:48;16.97;;;11.73;;
2680;SDS011;1350;42.134;24.708;2023-11-21T13:00:17;22.95;;;11.40;;
2680;SDS011;1350;42.134;24.708;2023-11-21T13:02:53;13.98;;;10.65;;
2680;SDS011;1350;42.134;24.708;2023-11-21T13:05:25;17.90;;;10.95;;
2680;SDS011;1350;42.134;24.708;2023-11-21T13:07:54;20.60;;;10.70;;
2680;SDS011;1350;42.134;24.708;2023-11-21T13:10:23;16.38;;;11.43;;
2680;SDS011;1350;42.134;24.708;2023-11-21T13:12:54;17.23;;;11.57;;
2680;SDS011;1350;42.134;24.708;2023-11-21T13:15:23;16.73;;;11.57;;
2680;SDS011;1350;42.134;24.708;2023-11-21T13:17:50;17.70;;;11.13;;
2680;SDS011;1350;42.134;24.708;2023-11-21T13:20:18;47.20;;;21.27;;
2680;SDS011;1350;42.134;24.708;2023-11-21T13:22:49;52.37;;;19.57;;
2680;SDS011;1350;42.134;24.708;2023-11-21T13:25:20;89.00;;;22.00;;
2680;SDS011;1350;42.134;24.708;2023-11-21T13:27:47;18.03;;;11.20;;
2680;SDS011;1350;42.134;24.708;2023-11-21T13:30:16;18.60;;;11.13;;
2680;SDS011;1350;42.134;24.708;2023-11-21T13:32:44;19.30;;;11.03;;
2680;SDS011;1350;42.134;24.708;2023-11-21T13:35:12;28.93;;;11.43;;
2680;SDS011;1350;42.134;24.708;2023-11-21T13:37:48;23.30;;;11.63;;
2680;SDS011;1350;42.134;24.708;2023-11-21T13:40:21;14.63;;;11.43;;
2680;SDS011;1350;42.134;24.708;2023-11-21T13:42:52;22.73;;;12.33;;
2680;SDS011;1350;42.134;24.708;2023-11-21T13:45:19;25.70;;;14.20;;
2680;SDS011;1350;42.134;24.708;2023-11-21T13:47:48;16.17;;;11.20;;
2680;SDS011;1350;42.134;24.708;2023-11-21T13:50:18;20.63;;;12.63;;
2680;SDS011;1350;42.134;24.708;2023-11-21T13:52:48;27.30;;;11.50;;
2680;SDS011;1350;42.134;24.708;2023-11-21T13:55:18;16.67;;;10.33;;
2680;SDS011;1350;42.134;24.708;2023-11-21T13:57:46;25.40;;;11.97;;
2680;SDS011;1350;42.134;24.708;2023-11-21T14:00:15;18.03;;;10.83;;
2680;SDS011;1350;42.134;24.708;2023-11-21T14:02:56;17.20;;;11.20;;
2680;SDS011;1350;42.134;24.708;2023-11-21T14:05:25;31.23;;;11.80;;
2680;SDS011;1350;42.134;24.708;2023-11-21T14:07:54;29.17;;;13.10;;
2680;SDS011;1350;42.134;24.708;2023-11-21T14:10:27;23.63;;;12.23;;
2680;SDS011;1350;42.134;24.708;2023-11-21T14:13:03;18.20;;;12.73;;
2680;SDS011;1350;42.134;24.708;2023-11-21T14:15:31;16.70;;;12.30;;
2680;SDS011;1350;42.134;24.708;2023-11-21T14:17:58;31.07;;;13.93;;
2680;SDS011;1350;42.134;24.708;2023-11-21T14:20:27;23.43;;;10.73;;
2680;SDS011;1350;42.134;24.708;2023-11-21T14:22:55;24.75;;;10.98;;
2680;SDS011;1350;42.134;24.708;2023-11-21T14:25:22;27.07;;;13.37;;
2680;SDS011;1350;42.134;24.708;2023-11-21T14:27:49;34.47;;;13.80;;
2680;SDS011;1350;42.134;24.708;2023-11-21T14:30:17;42.10;;;15.50;;
2680;SDS011;1350;42.134;24.708;2023-11-21T14:32:47;43.13;;;16.87;;
2680;SDS011;1350;42.134;24.708;2023-11-21T14:35:14;36.17;;;17.63;;
2680;SDS011;1350;42.134;24.708;2023-11-21T14:37:41;66.65;;;15.43;;
2680;SDS011;1350;42.134;24.708;2023-11-21T14:40:10;38.45;;;14.02;;
2680;SDS011;1350;42.134;24.708;2023-11-21T14:42:41;36.50;;;12.88;;
2680;SDS011;1350;42.134;24.708;2023-11-21T14:45:08;38.23;;;13.23;;
2680;SDS011;1350;42.134;24.708;2023-11-21T14:47:39;53.63;;;14.73;;
2680;SDS011;1350;42.134;24.708;2023-11-21T14:50:11;30.73;;;12.50;;
2680;SDS011;1350;42.134;24.708;2023-11-21T14:52:52;37.23;;;13.67;;
2680;SDS011;1350;42.134;24.708;2023-11-21T14:55:24;41.38;;;13.27;;